Aérodrome :
LOGIN :

S'inscrire | Disclaimer

   EN    FR    IT 

 










Légende :    VFR   VFR Marginal   IFR   IFR Intensif   IFR Très Intensif
Visi : 
Plafond : 
>= 8 km
>= 3000ft
5 à 8 km
1000 à 3000 ft
1500m à 5 km
500 à 1000 ft
800 à 1500m
200 à 500 ft
< 800m
< 200 ft
Symboles :   Orages  Brouillard  Fortes neiges  Fortes précipitations  Vent > 20 kt
SIGMETs :   Divers  Orages  Givrage  Turbulence  Onde Orograph.  Cendres Volcan.






- Altitude de l'aérodrome : 74 ft
- Code IATA : EIN


EHEH - Eindhoven

DERNIER METAR :
  • 301826Z AUTO 25005KT 210V330 9999 SHRA SCT005 BKN006 BKN007 FEW015CB 14/14 Q1013 YLO TEMPO VRB15G30KT 2500 SHRA SCT005 BKN006 SCT050CB

METARs EXPIRÉS :
  • 301814Z AUTO 29007KT 230V020 9999 SHRA FEW015CB OVC043 14/13 Q1013 BLU TEMPO VRB15G30KT 2500 SHRA SCT005 BKN006 SCT050CB
  • 301804Z AUTO 29008KT 230V350 9999 FEW007 FEW015CB BKN043 BKN069 14/14 Q1013 BLU TEMPO VRB15G30KT 2500 SHRA SCT005 BKN006 SCT050CB
  • 301755Z AUTO 28009KT 240V350 9999 -RADZ FEW006 SCT008 BKN009 FEW015CB 14/14 Q1013 RETSRA GRN TEMPO VRB15G30KT 2500 SHRA SCT005 BKN006 SCT050CB
  • 301745Z AUTO 27007KT 240V310 9999 -SHRA SCT006 BKN007 BKN011 FEW015CB 14/14 Q1013 YLO TEMPO VRB15G30KT 2500 SHRA SCT005 BKN006 SCT050CB
  • 301740Z AUTO 28006KT 220V350 9999 -SHRA FEW005 SCT007 BKN008 SCT015CB 14/14 Q1013 GRN TEMPO VRB15G30KT 2500 SHRA SCT005 BKN006 SCT050CB
  • 301725Z AUTO 29007KT 210V020 6000 +SHRA SCT005 BKN007 BKN008 SCT015CB 14/14 Q1013 YLO TEMPO VRB15G30KT 2500 SHRA SCT005 BKN006 SCT050CB
  • 301717Z AUTO 25009KT 210V320 9999 RA SCT005 BKN006 BKN009 FEW015CB 14/14 Q1013 YLO TEMPO VRB15G30KT 2500 SHRA SCT005 BKN006 SCT050CB
  • 301700Z AUTO 27009KT 230V330 5000 +TSRA SCT005 BKN007 BKN008 SCT015CB 14/14 Q1012 YLO TEMPO VRB15G30KT 2500 SHRA SCT005 BKN006 SCT050CB
  • 301655Z AUTO 26008KT 230V330 5000 +TSRA SCT005 BKN007 BKN008 BKN015CB 14/14 Q1012 YLO TEMPO VRB15G30KT 2500 SHRA SCT005 BKN006 SCT050CB
  • 301639Z AUTO 27015G26KT 240V320 5000 R21/2000D +TSRA FEW002 SCT007 BKN010 BKN015CB 14/13 Q1013 GRN TEMPO VRB15G30KT 1500 TSRAGR SCT003 BKN005 SCT040CB
  • 301635Z AUTO 28018KT 230V310 1100 R21/3000D +TSRA FEW002 SCT013 BKN015CB 14/13 Q1013 AMB TEMPO VRB15G30KT 1500 TSRAGR SCT003 BKN005 SCT040CB
  • 301631Z AUTO 24016G26KT 190V310 3600 R21/P3000N +TSRA FEW013 SCT015CB BKN021 15/12 Q1013 YLO TEMPO VRB15G30KT 2000 TSRAGR SCT004 BKN005 SCT040CB
  • 301555Z AUTO 27015KT 230V340 9999 OVC018 18/14 Q1011 WHT TEMPO VRB15G30KT 2000 TSRAGR SCT004 BKN005 SCT040CB

TAF TAF EHEH
Valide du 30 à 18h jusqu'au 02 à 00h UTC


301746Z 3018/0124 25006KT 9999 BKN020
TEMPO 3018/3021 VRB10G20KT 4500 SHRA RA FEW008 BKN012 OVC020 SCT040CB
TEMPO 3018/3020 VRB15G25KT 2500 +SHRA TSRA BKN005 OVC010 BKN040CB
TEMPO 3021/0107 SCT006 BKN010
BECMG 0108/0110 24010G20KT
PROB40
TEMPO 0112/0119 SCT040CB BKN050
BECMG 0118/0120 20005KT



MET'MAP, la Météo Aéronautique d'un coup d'oeil ! - Copyright ORBIFLY Décembre 2007 - Disclaimer

ORBIFLY MET'MAP TEAM :

Programmation & Développement : Alexandra Zaïnal
Sur une idée originale de : Baudouin d'Aumeries
Soutien technique & logistique : Manuel Goepfert
Assistance : Marc-Olivier Méhu




SOURCES & CREDITS :

   NOAA